メインページ
METAR-TAF:

METAR-TAF

空港 :

ロサンゼルス国際空港

ロサンゼルス, カリフォルニア州, アメリカ合衆国

緯度: 33-56-17N, 経度: 118-23-20W, 海抜: 38m

現時点の気象観測

当レポートは33分前の18:53(UTC)に作成
西/南西の風 6kt
気温 25°C
湿度 57%
気圧 1012 hPa
視程: 16.1km
高度14000ftの雲はほとんどない
高度16000ftの雲はほとんどない

METAR: KLAX 181853Z 24006KT 10SM FEW140 FEW160 25/16 A2988 RMK AO2 SLP117 T02500156

時間: 12:26 (19:26 UTC)

予報

当レポートは1時間48分前の17:38(UTC)に作成
予報は18日の 18時(UTC)から 19日の 24時(UTC)まで有効
西の風 6kt
視程: 10km
高度1000ftの雲はほとんどない
高度1400ftの雲はほとんどない
18日の 2100時(UTC)から
西の風 14kt
視程: 10km
晴天
19日の 0300時(UTC)から
西/南西の風 8kt
視程: 10km
晴天
19日の 0800時(UTC)から
変向風 3kt
視程: 10km
高度800ftの雲はほとんどない
19日の 1300時(UTC)から
東/南東の風 3kt
視程: 10km
高度1200ftの千切れ雲あり
19日の 1800時(UTC)から
西の風 6kt
視程: 10km
高度1500ftの雲は散在している
19日の 2000時(UTC)から
西の風 12kt
視程: 10km
晴天

TAF: KLAX 181738Z 1818/1924 26006KT P6SM FEW010 FEW014 FM182100 26014KT P6SM SKC FM190300 25008KT P6SM SKC FM190800 VRB03KT P6SM FEW008 FM191300 11003KT P6SM BKN012 FM191800 26006KT P6SM SCT015 FM192000 26012KT P6SM SKC

4,000以上の空港の気象観測と天気予報(METAR報とTAF報)

利用可能な観測所は地図上に黄色い丸と赤い丸で示す。

丸の上にカーソルを重ねると観測所名を参照できる。

次にクリックすると気象観測と天気予報を参照できる。

マップの切り替え:黒色「×」印の緑ボタンをクリックして拡大、「-」印の緑ボタンをクリックして縮小、緑色の三角印をクリックして隣りの地図に切り替え


METAR-TAF: